createdAt,value
2024-03-07T00:00:39.769Z,0
2024-03-07T00:02:23.458Z,0
2024-03-07T00:04:07.165Z,0
2024-03-07T00:05:50.895Z,0
2024-03-07T00:07:34.612Z,0
2024-03-07T00:09:18.255Z,0
2024-03-07T00:11:01.981Z,0
2024-03-07T00:12:45.675Z,0
2024-03-07T00:14:29.365Z,0
2024-03-07T00:16:13.064Z,0
2024-03-07T00:17:56.814Z,0
2024-03-07T00:19:40.481Z,0
2024-03-07T00:21:24.218Z,0
2024-03-07T00:23:07.948Z,0
2024-03-07T00:24:51.576Z,0
2024-03-07T00:26:35.284Z,0
2024-03-07T00:28:18.986Z,0
2024-03-07T00:30:02.701Z,0
2024-03-07T00:31:46.409Z,0
2024-03-07T00:33:30.081Z,0
2024-03-07T00:35:13.800Z,0
2024-03-07T00:36:57.484Z,0
2024-03-07T00:38:41.203Z,0
2024-03-07T00:40:24.903Z,0
2024-03-07T00:42:08.634Z,0
2024-03-07T00:43:52.455Z,0
2024-03-07T00:45:36.007Z,0
2024-03-07T00:47:19.725Z,0
2024-03-07T00:49:03.427Z,0
2024-03-07T00:50:47.120Z,0
2024-03-07T00:52:30.816Z,0
2024-03-07T00:54:14.521Z,0
2024-03-07T00:55:58.239Z,0
2024-03-07T00:57:41.925Z,0
2024-03-07T00:59:25.629Z,0
2024-03-07T01:01:09.341Z,0
2024-03-07T01:02:53.040Z,0
2024-03-07T01:04:36.733Z,0
2024-03-07T01:06:20.419Z,0
2024-03-07T01:08:04.141Z,0
2024-03-07T01:09:47.841Z,0
2024-03-07T01:11:31.531Z,0
2024-03-07T01:13:15.224Z,0
2024-03-07T01:14:58.958Z,0
2024-03-07T01:16:42.650Z,0
2024-03-07T01:18:26.348Z,0
2024-03-07T01:20:10.050Z,0
2024-03-07T01:21:53.774Z,0
2024-03-07T01:23:37.491Z,0
2024-03-07T01:25:21.153Z,0
2024-03-07T01:27:04.991Z,0
2024-03-07T01:28:48.554Z,0
2024-03-07T01:30:32.300Z,1
2024-03-07T01:32:16.017Z,0
2024-03-07T01:33:59.656Z,0
2024-03-07T01:35:43.371Z,0
2024-03-07T01:37:27.069Z,0
2024-03-07T01:39:10.769Z,0
2024-03-07T01:40:54.459Z,0
2024-03-07T01:42:38.187Z,0
2024-03-07T01:44:21.858Z,0
2024-03-07T01:46:05.575Z,0
2024-03-07T01:47:49.279Z,0
2024-03-07T01:49:32.967Z,0
2024-03-07T01:51:16.678Z,0
2024-03-07T01:53:00.381Z,0
2024-03-07T01:54:44.082Z,0
2024-03-07T01:56:27.774Z,0
2024-03-07T01:58:11.496Z,0
2024-03-07T01:59:55.181Z,0
2024-03-07T02:01:38.905Z,0
2024-03-07T02:03:22.589Z,0
2024-03-07T02:05:06.298Z,0
2024-03-07T02:06:50.016Z,0
2024-03-07T02:08:33.688Z,0
2024-03-07T02:10:17.411Z,0
2024-03-07T02:12:01.112Z,0
2024-03-07T02:13:44.813Z,0
2024-03-07T02:15:28.496Z,0
2024-03-07T02:17:12.210Z,0
2024-03-07T02:18:55.993Z,0
2024-03-07T02:20:39.613Z,0
2024-03-07T02:22:23.302Z,0
2024-03-07T02:24:07.017Z,0
2024-03-07T02:25:50.701Z,0
2024-03-07T02:27:34.421Z,0
2024-03-07T02:29:18.155Z,0
2024-03-07T02:31:01.844Z,0
2024-03-07T02:34:29.213Z,0
2024-03-07T02:36:12.932Z,0
2024-03-07T02:37:56.629Z,0
2024-03-07T02:39:40.327Z,0
2024-03-07T02:41:24.026Z,0
2024-03-07T02:43:07.715Z,0
2024-03-07T02:44:51.431Z,0
2024-03-07T02:46:35.214Z,0
2024-03-07T02:48:18.818Z,0
2024-03-07T02:50:02.525Z,0
2024-03-07T02:51:46.237Z,0
2024-03-07T02:53:29.933Z,0
2024-03-07T02:55:13.611Z,0
2024-03-07T02:56:57.359Z,0
2024-03-07T02:58:41.113Z,0
2024-03-07T03:00:24.841Z,0
2024-03-07T03:02:08.445Z,0
2024-03-07T03:03:52.149Z,0
2024-03-07T03:05:35.940Z,0
2024-03-07T03:07:19.540Z,0
2024-03-07T03:09:03.244Z,0
2024-03-07T03:10:46.937Z,0
2024-03-07T03:12:30.628Z,0
2024-03-07T03:14:14.324Z,0
2024-03-07T03:15:58.033Z,0
2024-03-07T03:17:41.736Z,0
2024-03-07T03:19:25.475Z,0
2024-03-07T03:21:09.153Z,0
2024-03-07T03:22:52.845Z,0
2024-03-07T03:24:36.547Z,0
2024-03-07T03:26:20.265Z,0
2024-03-07T03:28:03.949Z,0
2024-03-07T03:29:47.664Z,0
2024-03-07T03:31:31.360Z,0
2024-03-07T03:33:15.064Z,0
2024-03-07T03:34:58.750Z,0
2024-03-07T03:36:42.453Z,0
2024-03-07T03:38:26.135Z,0
2024-03-07T03:40:09.862Z,0
2024-03-07T03:41:53.564Z,0
2024-03-07T03:43:37.259Z,0
2024-03-07T03:45:20.954Z,0
2024-03-07T03:47:04.667Z,0
2024-03-07T03:48:48.369Z,0
2024-03-07T03:50:32.072Z,0
2024-03-07T03:52:15.772Z,0
2024-03-07T03:53:59.481Z,0
2024-03-07T03:55:43.239Z,0
2024-03-07T03:57:26.886Z,0
2024-03-07T03:59:10.596Z,0
2024-03-07T04:00:54.274Z,0
2024-03-07T04:02:37.969Z,0
2024-03-07T04:04:21.688Z,0
2024-03-07T04:06:05.409Z,0
2024-03-07T04:07:49.087Z,0
2024-03-07T04:09:32.775Z,0
2024-03-07T04:11:16.480Z,0
2024-03-07T04:13:00.200Z,0
2024-03-07T04:14:43.896Z,0
2024-03-07T04:16:27.585Z,0
2024-03-07T04:18:11.285Z,0
2024-03-07T04:19:55.003Z,0
2024-03-07T04:21:38.717Z,0
2024-03-07T04:23:22.369Z,0
2024-03-07T04:25:06.084Z,0
2024-03-07T04:26:49.793Z,0
2024-03-07T04:28:33.505Z,0
2024-03-07T04:30:17.215Z,0
2024-03-07T04:32:00.918Z,0
2024-03-07T04:33:44.591Z,0
2024-03-07T04:35:28.294Z,0
2024-03-07T04:37:12.022Z,0
2024-03-07T04:38:55.709Z,0
2024-03-07T04:40:39.456Z,0
2024-03-07T04:42:23.100Z,0
2024-03-07T04:44:06.825Z,0
2024-03-07T04:45:50.506Z,0
2024-03-07T04:47:34.209Z,0
2024-03-07T04:49:17.897Z,0
2024-03-07T04:51:01.604Z,0
2024-03-07T04:52:45.315Z,0
2024-03-07T04:54:29.026Z,0
2024-03-07T04:56:12.735Z,0
2024-03-07T04:57:56.457Z,0
2024-03-07T04:59:40.123Z,0
2024-03-07T05:01:23.843Z,0
2024-03-07T05:03:07.558Z,0
2024-03-07T05:04:51.324Z,0
2024-03-07T05:06:34.926Z,0
2024-03-07T05:08:18.658Z,0
2024-03-07T05:10:02.339Z,0
2024-03-07T05:11:46.034Z,0
2024-03-07T05:13:29.738Z,0
2024-03-07T05:15:13.440Z,0
2024-03-07T05:16:57.149Z,0
2024-03-07T05:18:40.848Z,0
2024-03-07T05:20:24.541Z,0
2024-03-07T05:22:08.231Z,0
2024-03-07T05:23:51.956Z,0
2024-03-07T05:25:35.667Z,1
2024-03-07T05:27:19.345Z,1
2024-03-07T05:29:03.043Z,2
2024-03-07T05:30:46.743Z,3
2024-03-07T05:32:30.469Z,6
2024-03-07T05:34:14.167Z,8
2024-03-07T05:35:57.867Z,11
2024-03-07T05:37:41.561Z,12
2024-03-07T05:39:25.269Z,16
2024-03-07T05:41:08.967Z,19
2024-03-07T05:42:52.642Z,22
2024-03-07T05:44:36.446Z,25
2024-03-07T05:46:20.065Z,27
2024-03-07T05:48:03.890Z,32
2024-03-07T05:49:47.512Z,38
2024-03-07T05:51:31.226Z,42
2024-03-07T05:53:14.876Z,51
2024-03-07T05:54:58.566Z,55
2024-03-07T05:56:42.280Z,63
2024-03-07T05:58:25.970Z,72
2024-03-07T06:00:09.765Z,88
2024-03-07T06:01:53.411Z,103
2024-03-07T06:03:37.083Z,113
2024-03-07T06:05:20.779Z,132
2024-03-07T06:07:04.473Z,157
2024-03-07T06:08:48.172Z,180
2024-03-07T06:10:31.894Z,188
2024-03-07T06:12:15.578Z,208
2024-03-07T06:13:59.304Z,223
2024-03-07T06:15:42.966Z,244
2024-03-07T06:17:26.707Z,273
2024-03-07T06:19:10.399Z,296
2024-03-07T06:20:54.093Z,304
2024-03-07T06:22:37.815Z,332
2024-03-07T06:24:21.559Z,338
2024-03-07T06:26:05.198Z,374
2024-03-07T06:27:48.884Z,391
2024-03-07T06:29:32.603Z,438
2024-03-07T06:31:16.288Z,450
2024-03-07T06:33:00.004Z,444
2024-03-07T06:34:43.705Z,439
2024-03-07T06:36:27.408Z,453
2024-03-07T06:38:11.131Z,478
2024-03-07T06:39:54.788Z,519
2024-03-07T06:41:38.483Z,556
2024-03-07T06:43:22.240Z,616
2024-03-07T06:45:05.973Z,614
2024-03-07T06:46:49.613Z,631
2024-03-07T06:48:33.305Z,683
2024-03-07T06:50:17.024Z,773
2024-03-07T06:52:00.711Z,729
2024-03-07T06:53:44.420Z,725
2024-03-07T06:55:28.111Z,722
2024-03-07T06:57:11.821Z,628
2024-03-07T06:58:55.512Z,561
2024-03-07T07:00:39.257Z,584
2024-03-07T07:02:22.916Z,644
2024-03-07T07:04:06.864Z,575
2024-03-07T07:05:50.345Z,517
2024-03-07T07:07:34.042Z,545
2024-03-07T07:09:17.740Z,618
2024-03-07T07:11:01.465Z,692
2024-03-07T07:12:45.183Z,774
2024-03-07T07:14:28.899Z,774
2024-03-07T07:16:12.551Z,774
2024-03-07T07:17:56.252Z,772
2024-03-07T07:19:39.991Z,774
2024-03-07T07:21:23.656Z,773
2024-03-07T07:23:07.363Z,774
2024-03-07T07:24:51.045Z,775
2024-03-07T07:26:34.733Z,773
2024-03-07T07:28:18.492Z,774
2024-03-07T07:30:02.141Z,774
2024-03-07T07:31:45.876Z,774
2024-03-07T07:33:29.550Z,773
2024-03-07T07:35:13.252Z,774
2024-03-07T07:36:56.972Z,775
2024-03-07T07:38:40.760Z,774
2024-03-07T07:40:24.372Z,774
2024-03-07T07:42:08.061Z,774
2024-03-07T07:43:51.809Z,774
2024-03-07T07:45:35.470Z,774
2024-03-07T07:47:19.184Z,774
2024-03-07T07:49:02.873Z,774
2024-03-07T07:50:46.572Z,775
2024-03-07T07:52:30.279Z,774
2024-03-07T07:54:13.979Z,774
2024-03-07T07:55:57.689Z,774
2024-03-07T07:57:41.377Z,774
2024-03-07T07:59:25.075Z,774
2024-03-07T08:01:08.788Z,774
2024-03-07T08:02:52.499Z,775
2024-03-07T08:04:36.201Z,774
2024-03-07T08:06:19.899Z,775
2024-03-07T08:08:03.594Z,775
2024-03-07T08:09:47.405Z,774
2024-03-07T08:11:30.979Z,774
2024-03-07T08:13:14.698Z,775
2024-03-07T08:14:58.392Z,775
2024-03-07T08:16:42.092Z,775
2024-03-07T08:18:25.809Z,774
2024-03-07T08:20:09.485Z,775
2024-03-07T08:21:53.216Z,774
2024-03-07T08:23:36.914Z,775
2024-03-07T08:25:20.614Z,775
2024-03-07T08:27:04.321Z,775
2024-03-07T08:28:48.022Z,775
2024-03-07T08:30:31.736Z,775
2024-03-07T08:32:15.411Z,775
2024-03-07T08:33:59.119Z,775
2024-03-07T08:35:42.828Z,775
2024-03-07T08:37:26.512Z,775
2024-03-07T08:39:10.241Z,774
2024-03-07T08:40:53.946Z,773
2024-03-07T08:42:37.631Z,775
2024-03-07T08:44:21.332Z,774
2024-03-07T08:46:05.031Z,776
2024-03-07T08:47:48.747Z,775
2024-03-07T08:49:32.434Z,775
2024-03-07T08:51:16.125Z,775
2024-03-07T08:52:59.838Z,775
2024-03-07T08:54:43.531Z,775
2024-03-07T08:56:27.243Z,774
2024-03-07T08:58:10.937Z,776
2024-03-07T08:59:54.644Z,776
2024-03-07T09:01:38.351Z,776
2024-03-07T09:03:22.060Z,776
2024-03-07T09:05:05.750Z,776
2024-03-07T09:06:49.457Z,776
2024-03-07T09:08:33.149Z,776
2024-03-07T09:10:16.909Z,774
2024-03-07T09:12:00.563Z,776
2024-03-07T09:13:44.530Z,776
2024-03-07T09:15:27.988Z,776
2024-03-07T09:17:11.697Z,775
2024-03-07T09:18:55.369Z,777
2024-03-07T09:20:39.097Z,776
2024-03-07T09:22:22.775Z,776
2024-03-07T09:24:06.529Z,776
2024-03-07T09:25:50.191Z,776
2024-03-07T09:27:33.864Z,776
2024-03-07T09:29:17.587Z,777
2024-03-07T09:31:01.292Z,776
2024-03-07T09:32:45.000Z,774
2024-03-07T09:34:28.684Z,776
2024-03-07T09:36:12.389Z,776
2024-03-07T09:37:56.101Z,776
2024-03-07T09:39:39.803Z,777
2024-03-07T09:41:23.491Z,776
2024-03-07T09:43:07.198Z,776
2024-03-07T09:44:50.885Z,776
2024-03-07T09:46:34.587Z,776
2024-03-07T09:48:18.304Z,776
2024-03-07T09:50:02.007Z,777
2024-03-07T09:51:45.687Z,776
2024-03-07T09:53:29.418Z,776
2024-03-07T09:55:13.109Z,776
2024-03-07T09:56:56.918Z,776
2024-03-07T09:58:40.499Z,777
2024-03-07T10:00:24.254Z,776
2024-03-07T10:02:07.941Z,776
2024-03-07T10:03:51.604Z,776
2024-03-07T10:05:35.329Z,777
2024-03-07T10:07:19.283Z,776
2024-03-07T10:09:03.022Z,776
2024-03-07T10:10:46.816Z,775
2024-03-07T10:12:30.250Z,776
2024-03-07T10:14:13.822Z,776
2024-03-07T10:15:57.532Z,776
2024-03-07T10:17:41.240Z,776
2024-03-07T10:19:24.926Z,776
2024-03-07T10:21:08.702Z,776
2024-03-07T10:22:52.355Z,777
2024-03-07T10:24:36.038Z,777
2024-03-07T10:26:19.738Z,777
2024-03-07T10:28:03.456Z,776
2024-03-07T10:29:47.162Z,777
2024-03-07T10:31:30.846Z,777
2024-03-07T10:33:14.580Z,775
2024-03-07T10:34:58.239Z,776
2024-03-07T10:36:41.949Z,777
2024-03-07T10:38:25.742Z,770
2024-03-07T10:40:09.368Z,777
2024-03-07T10:41:53.317Z,777
2024-03-07T10:43:36.764Z,776
2024-03-07T10:45:20.458Z,777
2024-03-07T10:47:04.169Z,776
2024-03-07T10:48:47.839Z,777
2024-03-07T10:50:31.544Z,776
2024-03-07T10:52:15.262Z,776
2024-03-07T10:53:58.964Z,776
2024-03-07T10:55:42.661Z,776
2024-03-07T10:57:26.406Z,776
2024-03-07T10:59:10.133Z,777
2024-03-07T11:00:53.787Z,777
2024-03-07T11:02:37.492Z,776
2024-03-07T11:04:21.179Z,777
2024-03-07T11:06:05.179Z,777
2024-03-07T11:07:48.779Z,776
2024-03-07T11:09:32.535Z,774
2024-03-07T11:11:15.984Z,777
2024-03-07T11:12:59.742Z,777
2024-03-07T11:14:43.509Z,777
2024-03-07T11:16:27.279Z,777
2024-03-07T11:18:10.850Z,777
2024-03-07T11:19:54.580Z,777
2024-03-07T11:21:38.326Z,777
2024-03-07T11:23:22.129Z,777
2024-03-07T11:25:05.907Z,777
2024-03-07T11:26:49.472Z,776
2024-03-07T11:28:33.261Z,777
2024-03-07T11:30:16.976Z,777
2024-03-07T11:32:00.617Z,776
2024-03-07T11:33:44.167Z,777
2024-03-07T11:35:27.810Z,776
2024-03-07T11:37:11.662Z,777
2024-03-07T11:38:55.374Z,777
2024-03-07T11:40:39.207Z,777
2024-03-07T11:42:22.609Z,777
2024-03-07T11:44:06.295Z,776
2024-03-07T11:45:50.083Z,777
2024-03-07T11:47:33.733Z,777
2024-03-07T11:49:17.417Z,776
2024-03-07T11:51:01.113Z,776
2024-03-07T11:52:44.847Z,776
2024-03-07T11:54:28.514Z,776
2024-03-07T11:56:12.311Z,777
2024-03-07T11:57:55.984Z,777
2024-03-07T11:59:39.618Z,776
2024-03-07T12:01:23.489Z,777
2024-03-07T12:03:07.049Z,777
2024-03-07T12:04:50.725Z,777
2024-03-07T12:06:34.455Z,776
2024-03-07T12:08:18.172Z,777
2024-03-07T12:10:02.014Z,777
2024-03-07T12:11:45.539Z,778
2024-03-07T12:13:29.254Z,777
2024-03-07T12:15:13.004Z,777
2024-03-07T12:16:56.696Z,777
2024-03-07T12:18:40.430Z,777
2024-03-07T12:20:24.031Z,777
2024-03-07T12:22:07.800Z,777
2024-03-07T12:23:51.441Z,777
2024-03-07T12:25:35.167Z,776
2024-03-07T12:27:18.998Z,777
2024-03-07T12:29:02.557Z,774
2024-03-07T12:30:46.273Z,777
2024-03-07T12:32:30.048Z,777
2024-03-07T12:34:13.663Z,777
2024-03-07T12:35:57.419Z,777
2024-03-07T12:37:41.105Z,776
2024-03-07T12:39:24.752Z,776
2024-03-07T12:41:08.482Z,776
2024-03-07T12:42:52.198Z,776
2024-03-07T12:44:35.877Z,777
2024-03-07T12:46:19.567Z,777
2024-03-07T12:48:03.331Z,776
2024-03-07T12:49:46.981Z,777
2024-03-07T12:51:30.694Z,777
2024-03-07T12:53:14.369Z,777
2024-03-07T12:54:58.154Z,777
2024-03-07T12:56:41.769Z,777
2024-03-07T12:58:25.655Z,776
2024-03-07T13:00:09.186Z,776
2024-03-07T13:01:52.882Z,777
2024-03-07T13:03:36.594Z,776
2024-03-07T13:05:20.299Z,777
2024-03-07T13:07:03.998Z,777
2024-03-07T13:08:47.679Z,777
2024-03-07T13:10:31.390Z,777
2024-03-07T13:12:15.089Z,774
2024-03-07T13:13:58.817Z,777
2024-03-07T13:15:42.891Z,777
2024-03-07T13:17:26.495Z,777
2024-03-07T13:19:09.965Z,777
2024-03-07T13:20:53.711Z,776
2024-03-07T13:22:37.386Z,776
2024-03-07T13:24:20.999Z,777
2024-03-07T13:26:04.850Z,777
2024-03-07T13:27:48.572Z,777
2024-03-07T13:29:32.243Z,776
2024-03-07T13:31:15.846Z,776
2024-03-07T13:32:59.559Z,777
2024-03-07T13:34:43.258Z,777
2024-03-07T13:36:26.921Z,777
2024-03-07T13:38:10.707Z,777
2024-03-07T13:39:54.384Z,777
2024-03-07T13:41:38.071Z,777
2024-03-07T13:43:21.786Z,777
2024-03-07T13:45:05.437Z,777
2024-03-07T13:46:49.133Z,777
2024-03-07T13:48:32.921Z,774
2024-03-07T13:50:16.526Z,776
2024-03-07T13:52:00.228Z,776
2024-03-07T13:53:43.926Z,776
2024-03-07T13:55:27.663Z,777
2024-03-07T13:57:11.341Z,776
2024-03-07T13:58:55.105Z,776
2024-03-07T14:00:38.760Z,777
2024-03-07T14:02:22.493Z,776
2024-03-07T14:04:06.124Z,776
2024-03-07T14:05:50.137Z,776
2024-03-07T14:07:33.547Z,777
2024-03-07T14:09:17.364Z,777
2024-03-07T14:11:01.071Z,777
2024-03-07T14:12:44.722Z,776
2024-03-07T14:14:28.416Z,776
2024-03-07T14:16:12.060Z,777
2024-03-07T14:17:55.756Z,776
2024-03-07T14:19:39.663Z,776
2024-03-07T14:21:23.144Z,777
2024-03-07T14:23:06.877Z,776
2024-03-07T14:24:50.571Z,776
2024-03-07T14:26:34.259Z,776
2024-03-07T14:28:17.978Z,776
2024-03-07T14:30:01.653Z,777
2024-03-07T14:31:45.360Z,776
2024-03-07T14:33:29.085Z,776
2024-03-07T14:35:12.792Z,776
2024-03-07T14:36:56.493Z,777
2024-03-07T14:38:40.159Z,776
2024-03-07T14:40:23.856Z,776
2024-03-07T14:42:07.575Z,777
2024-03-07T14:43:51.403Z,776
2024-03-07T14:45:34.963Z,777
2024-03-07T14:47:18.760Z,777
2024-03-07T14:49:02.373Z,776
2024-03-07T14:50:46.085Z,777
2024-03-07T14:52:29.781Z,776
2024-03-07T14:54:13.493Z,776
2024-03-07T14:55:57.196Z,776
2024-03-07T14:57:40.894Z,776
2024-03-07T14:59:24.595Z,776
2024-03-07T15:01:08.293Z,774
2024-03-07T15:02:51.994Z,776
2024-03-07T15:04:35.709Z,775
2024-03-07T15:06:19.566Z,775
2024-03-07T15:08:03.201Z,775
2024-03-07T15:09:46.804Z,777
2024-03-07T15:11:30.501Z,776
2024-03-07T15:13:14.206Z,776
2024-03-07T15:14:57.921Z,776
2024-03-07T15:16:41.588Z,776
2024-03-07T15:18:25.400Z,776
2024-03-07T15:20:09.014Z,776
2024-03-07T15:21:52.717Z,776
2024-03-07T15:23:36.421Z,776
2024-03-07T15:25:20.098Z,776
2024-03-07T15:27:03.806Z,776
2024-03-07T15:28:47.507Z,775
2024-03-07T15:30:31.218Z,775
2024-03-07T15:32:14.942Z,776
2024-03-07T15:33:58.674Z,776
2024-03-07T15:35:42.515Z,778
2024-03-07T15:37:26.032Z,776
2024-03-07T15:39:09.877Z,776
2024-03-07T15:40:53.435Z,775
2024-03-07T15:42:37.186Z,776
2024-03-07T15:44:20.882Z,776
2024-03-07T15:46:04.561Z,776
2024-03-07T15:47:48.223Z,776
2024-03-07T15:54:43.042Z,776
2024-03-07T15:56:26.747Z,775
2024-03-07T15:58:10.452Z,775
2024-03-07T15:59:54.152Z,773
2024-03-07T16:01:37.851Z,768
2024-03-07T16:03:21.604Z,691
2024-03-07T16:05:05.270Z,653
2024-03-07T16:06:48.988Z,647
2024-03-07T16:08:32.743Z,619
2024-03-07T16:10:16.347Z,568
2024-03-07T16:12:00.092Z,519
2024-03-07T16:13:43.750Z,464
2024-03-07T16:15:27.459Z,418
2024-03-07T16:17:11.169Z,391
2024-03-07T16:18:54.867Z,365
2024-03-07T16:20:38.572Z,349
2024-03-07T16:22:22.274Z,343
2024-03-07T16:24:06.027Z,329
2024-03-07T16:25:49.680Z,320
2024-03-07T16:27:33.387Z,315
2024-03-07T16:29:17.097Z,300
2024-03-07T16:31:00.996Z,281
2024-03-07T16:32:44.609Z,248
2024-03-07T16:34:28.272Z,218
2024-03-07T16:36:11.901Z,206
2024-03-07T16:37:55.574Z,187
2024-03-07T16:39:39.288Z,174
2024-03-07T16:41:22.990Z,160
2024-03-07T16:43:06.774Z,153
2024-03-07T16:44:50.398Z,138
2024-03-07T16:46:34.096Z,132
2024-03-07T16:48:17.929Z,134
2024-03-07T16:50:01.488Z,135
2024-03-07T16:51:45.210Z,131
2024-03-07T16:53:29.068Z,126
2024-03-07T16:55:12.644Z,118
2024-03-07T16:56:56.400Z,105
2024-03-07T16:58:40.044Z,94
2024-03-07T17:00:23.711Z,82
2024-03-07T17:02:07.413Z,71
2024-03-07T17:03:51.101Z,59
2024-03-07T17:05:34.823Z,51
2024-03-07T17:07:18.505Z,42
2024-03-07T17:09:02.221Z,36
2024-03-07T17:10:45.927Z,30
2024-03-07T17:12:29.667Z,25
2024-03-07T17:14:13.319Z,22
2024-03-07T17:15:57.027Z,19
2024-03-07T17:17:40.735Z,16
2024-03-07T17:19:24.424Z,13
2024-03-07T17:21:08.127Z,11
2024-03-07T17:22:51.830Z,10
2024-03-07T17:24:35.541Z,7
2024-03-07T17:26:19.273Z,7
2024-03-07T17:28:02.938Z,5
2024-03-07T17:29:46.640Z,4
2024-03-07T17:31:30.339Z,3
2024-03-07T17:33:14.050Z,2
2024-03-07T17:34:57.745Z,1
2024-03-07T17:36:41.486Z,1
2024-03-07T17:38:25.169Z,0
2024-03-07T17:40:08.851Z,0
2024-03-07T17:41:52.557Z,0
2024-03-07T17:43:36.297Z,1
2024-03-07T17:45:19.965Z,0
2024-03-07T17:47:03.682Z,0
2024-03-07T17:48:47.391Z,0
2024-03-07T17:50:31.076Z,0
2024-03-07T17:52:14.774Z,0
2024-03-07T17:53:58.455Z,0
2024-03-07T17:55:42.207Z,0
2024-03-07T17:57:25.876Z,0
2024-03-07T17:59:09.580Z,0
2024-03-07T18:00:53.336Z,0
2024-03-07T18:02:36.974Z,1
2024-03-07T18:04:20.657Z,0
2024-03-07T18:06:04.374Z,0
2024-03-07T18:07:48.090Z,0
2024-03-07T18:09:31.804Z,0
2024-03-07T18:11:15.497Z,0
2024-03-07T18:12:59.187Z,0
2024-03-07T18:14:42.891Z,0
2024-03-07T18:16:26.576Z,0
2024-03-07T18:18:10.301Z,0
2024-03-07T18:19:53.996Z,0
2024-03-07T18:21:37.715Z,0
2024-03-07T18:23:21.425Z,0
2024-03-07T18:25:05.103Z,0
2024-03-07T18:26:48.815Z,0
2024-03-07T18:28:32.543Z,0
2024-03-07T18:30:16.201Z,0
2024-03-07T18:31:59.889Z,0
2024-03-07T18:33:43.621Z,0
2024-03-07T18:35:27.331Z,0
2024-03-07T18:37:11.016Z,0
2024-03-07T18:38:54.731Z,0
2024-03-07T18:40:38.425Z,0
2024-03-07T18:42:22.124Z,0
2024-03-07T18:44:05.836Z,0
2024-03-07T18:45:49.534Z,0
2024-03-07T18:47:33.221Z,0
2024-03-07T18:49:16.948Z,0
2024-03-07T18:51:00.629Z,0
2024-03-07T18:52:44.329Z,0
2024-03-07T18:54:28.046Z,0
2024-03-07T18:56:11.731Z,0
2024-03-07T18:57:55.442Z,774
2024-03-07T18:59:39.148Z,775
2024-03-07T19:01:22.849Z,772
2024-03-07T19:03:06.542Z,775
2024-03-07T19:04:50.241Z,775
2024-03-07T19:06:33.967Z,774
2024-03-07T19:08:17.642Z,774
2024-03-07T19:10:01.353Z,774
2024-03-07T19:11:45.032Z,775
2024-03-07T19:13:28.774Z,775
2024-03-07T19:15:12.482Z,774
2024-03-07T19:16:56.173Z,774
2024-03-07T19:18:39.873Z,775
2024-03-07T19:20:23.584Z,774
2024-03-07T19:22:07.272Z,774
2024-03-07T19:23:50.988Z,774
2024-03-07T19:25:34.670Z,775
2024-03-07T19:27:18.415Z,774
2024-03-07T19:29:02.066Z,775
2024-03-07T19:30:45.776Z,774
2024-03-07T19:32:29.451Z,532
2024-03-07T19:34:13.179Z,549
2024-03-07T19:35:56.879Z,485
2024-03-07T19:37:40.584Z,584
2024-03-07T19:39:24.285Z,483
2024-03-07T19:41:07.983Z,451
2024-03-07T19:42:51.683Z,546
2024-03-07T19:44:35.392Z,501
2024-03-07T19:46:19.188Z,665
2024-03-07T19:48:02.775Z,774
2024-03-07T19:49:46.486Z,398
2024-03-07T19:51:30.202Z,519
2024-03-07T19:53:14.036Z,624
2024-03-07T19:54:57.607Z,775
2024-03-07T19:56:41.393Z,774
2024-03-07T19:58:24.998Z,775
2024-03-07T20:00:08.704Z,712
2024-03-07T20:01:52.468Z,775
2024-03-07T20:03:36.121Z,726
2024-03-07T20:05:19.835Z,775
2024-03-07T20:07:03.497Z,754
2024-03-07T20:08:47.228Z,613
2024-03-07T20:10:30.938Z,775
2024-03-07T20:12:14.619Z,775
2024-03-07T20:13:58.332Z,774
2024-03-07T20:15:42.035Z,775
2024-03-07T20:17:25.732Z,774
2024-03-07T20:19:09.480Z,775
2024-03-07T20:20:53.144Z,775
2024-03-07T20:22:36.842Z,775
2024-03-07T20:24:20.552Z,776
2024-03-07T20:26:04.222Z,775
2024-03-07T20:27:47.927Z,775
2024-03-07T20:29:31.637Z,775
2024-03-07T20:31:15.326Z,775
2024-03-07T20:32:59.131Z,775
2024-03-07T20:34:42.749Z,775
2024-03-07T20:36:26.601Z,775
2024-03-07T20:38:10.253Z,775
2024-03-07T20:39:53.845Z,653
2024-03-07T20:41:37.553Z,775
2024-03-07T20:43:21.249Z,775
2024-03-07T20:45:04.940Z,555
2024-03-07T20:46:48.663Z,775
2024-03-07T20:48:32.349Z,775
2024-03-07T20:50:16.050Z,1
2024-03-07T20:51:59.746Z,1
2024-03-07T20:53:43.458Z,2
2024-03-07T20:55:27.158Z,1
2024-03-07T20:57:10.881Z,2
2024-03-07T20:58:54.559Z,1
2024-03-07T21:00:38.290Z,2
2024-03-07T21:02:22.007Z,1
2024-03-07T21:05:49.381Z,2
2024-03-07T21:07:33.059Z,1
2024-03-07T21:09:16.768Z,1
2024-03-07T21:11:00.473Z,1
2024-03-07T21:12:44.191Z,1
2024-03-07T21:14:27.881Z,2
2024-03-07T21:16:11.592Z,1
2024-03-07T21:17:55.283Z,1
2024-03-07T21:19:39.003Z,1
2024-03-07T21:21:22.669Z,2
2024-03-07T21:23:06.381Z,1
2024-03-07T21:24:50.143Z,77
2024-03-07T21:26:33.915Z,77
2024-03-07T21:28:17.487Z,70
2024-03-07T21:30:01.314Z,68
2024-03-07T21:31:44.908Z,2
2024-03-07T21:33:28.611Z,3
2024-03-07T21:35:12.289Z,3
2024-03-07T21:36:55.994Z,2
2024-03-07T21:38:39.794Z,2
2024-03-07T21:40:23.435Z,3
2024-03-07T21:42:07.109Z,2
2024-03-07T21:43:50.882Z,19
2024-03-07T21:45:34.519Z,19
2024-03-07T21:47:18.192Z,16
2024-03-07T21:49:01.924Z,89
2024-03-07T21:50:45.604Z,90
2024-03-07T21:52:29.293Z,91
2024-03-07T21:54:13.015Z,89
2024-03-07T21:55:56.738Z,95
2024-03-07T21:57:40.416Z,96
2024-03-07T21:59:24.129Z,94
2024-03-07T22:01:07.838Z,93
2024-03-07T22:02:51.529Z,93
2024-03-07T22:04:35.276Z,94
2024-03-07T22:06:18.959Z,18
2024-03-07T22:08:02.717Z,17
2024-03-07T22:09:46.345Z,18
2024-03-07T22:11:30.110Z,17
2024-03-07T22:13:13.805Z,18
2024-03-07T22:14:57.438Z,16
2024-03-07T22:16:41.162Z,17
2024-03-07T22:18:24.941Z,18
2024-03-07T22:20:08.557Z,18
2024-03-07T22:21:52.240Z,19
2024-03-07T22:23:35.944Z,19
2024-03-07T22:25:19.647Z,20
2024-03-07T22:27:03.362Z,19
2024-03-07T22:28:47.100Z,20
2024-03-07T22:30:30.905Z,20
2024-03-07T22:32:14.484Z,19
2024-03-07T22:33:58.192Z,21
2024-03-07T22:35:41.859Z,20
2024-03-07T22:37:25.675Z,20
2024-03-07T22:39:09.264Z,20
2024-03-07T22:40:52.971Z,21
2024-03-07T22:42:36.679Z,20
2024-03-07T22:44:20.372Z,20
2024-03-07T22:46:04.127Z,20
2024-03-07T22:47:47.772Z,20
2024-03-07T22:49:31.483Z,21
2024-03-07T22:51:15.177Z,21
2024-03-07T22:52:58.887Z,20
2024-03-07T22:54:42.590Z,21
2024-03-07T22:56:26.400Z,19
2024-03-07T22:58:09.990Z,20
2024-03-07T22:59:53.693Z,20
2024-03-07T23:01:37.411Z,20
2024-03-07T23:03:21.100Z,21
2024-03-07T23:05:04.805Z,20
2024-03-07T23:06:48.490Z,20
2024-03-07T23:08:32.184Z,20
2024-03-07T23:10:15.895Z,21
2024-03-07T23:11:59.607Z,19
2024-03-07T23:13:43.333Z,20
2024-03-07T23:15:27.011Z,20
2024-03-07T23:18:54.414Z,20
2024-03-07T23:20:38.140Z,20
2024-03-07T23:22:21.820Z,20
2024-03-07T23:24:05.567Z,20
2024-03-07T23:25:49.209Z,20
2024-03-07T23:27:32.931Z,20
2024-03-07T23:29:16.615Z,20
2024-03-07T23:31:00.312Z,20
2024-03-07T23:32:44.032Z,20
2024-03-07T23:34:27.725Z,21
2024-03-07T23:36:11.436Z,0
2024-03-07T23:37:55.147Z,75
2024-03-07T23:39:38.833Z,76
2024-03-07T23:41:22.578Z,78
2024-03-07T23:43:06.257Z,76
2024-03-07T23:44:49.933Z,0
2024-03-07T23:46:33.642Z,0
2024-03-07T23:48:17.384Z,0
2024-03-07T23:50:01.055Z,0
2024-03-07T23:51:44.756Z,0
2024-03-07T23:53:28.451Z,0
2024-03-07T23:55:12.227Z,0
2024-03-07T23:56:55.875Z,0
2024-03-07T23:58:39.570Z,0
